Time;durP1;ratioP1;P1;durP2;ratioP2;P2;SDS_P1;SDS_P2;PMS_P1;PMS_P2;Temp;Humidity;BMP_temperature;BMP_pressure;BME280_temperature;BME280_humidity;BME280_pressure;Samples;Min_cycle;Max_cycle;Signal;HPM_P1;HPM_P2
2022/01/28 00:01:47;;;;;;;7.43;1.38;;;;;;;13.64;48.29;102753.84;5063067;28;20074;-63
2022/01/28 00:04:14;;;;;;;5.85;1.05;;;;;;;13.57;49.16;102740.91;5066268;28;20032;-62
2022/01/28 00:06:40;;;;;;;3.08;1.45;;;;;;;13.56;48.23;102752.63;5074619;28;20062;-62
2022/01/28 00:09:05;;;;;;;8.95;1.42;;;;;;;13.56;49.54;102753.50;5056447;28;20048;-61
2022/01/28 00:11:31;;;;;;;5.38;1.17;;;;;;;13.54;48.34;102749.19;5056475;28;20025;-62
2022/01/28 00:14:11;;;;;;;4.43;0.90;;;;;;;13.58;49.14;102766.84;5074499;28;20024;-62
2022/01/28 00:17:08;;;;;;;6.07;1.38;;;;;;;13.57;48.15;102776.75;5074233;28;20017;-62
2022/01/28 00:38:35;;;;;;;2.17;0.88;;;;;;;13.33;49.46;102813.34;5074058;28;20035;-62
2022/01/28 00:41:00;;;;;;;8.68;1.65;;;;;;;13.33;49.05;102822.28;5073961;28;20035;-62
2022/01/28 00:43:26;;;;;;;10.35;1.38;;;;;;;13.35;49.62;102832.94;5073938;28;20531;-62
2022/01/28 00:45:51;;;;;;;5.53;1.13;;;;;;;13.36;49.00;102824.78;5073697;28;20390;-62
2022/01/28 00:48:16;;;;;;;11.10;2.03;;;;;;;13.40;48.19;102842.44;5039329;28;20024;-62
2022/01/28 00:50:42;;;;;;;10.85;2.05;;;;;;;13.41;49.27;102849.56;5073729;28;20486;-62
2022/01/28 00:53:11;;;;;;;19.25;2.60;;;;;;;13.43;49.09;102840.53;5073787;28;20028;-62
2022/01/28 00:55:36;;;;;;;4.57;1.05;;;;;;;13.40;48.35;102831.69;5055622;28;20020;-62
2022/01/28 00:58:03;;;;;;;7.78;1.17;;;;;;;13.41;47.89;102838.81;5055801;28;20035;-62
2022/01/28 01:00:28;;;;;;;9.80;2.45;;;;;;;13.41;48.50;102836.13;5073506;28;20024;-62
2022/01/28 01:02:53;;;;;;;8.27;1.60;;;;;;;13.41;48.69;102837.94;5072951;28;20055;-62
2022/01/28 01:05:20;;;;;;;11.20;1.48;;;;;;;13.41;48.81;102838.81;5073166;28;20120;-62
2022/01/28 01:07:45;;;;;;;9.63;1.70;;;;;;;13.36;48.57;102835.56;5073244;28;20059;-62
2022/01/28 01:10:11;;;;;;;7.25;1.00;;;;;;;13.43;47.82;102840.53;5073160;28;20410;-62
2022/01/28 01:12:43;;;;;;;9.90;1.90;;;;;;;13.40;48.90;102845.16;5055529;28;20162;-62
2022/01/28 01:15:09;;;;;;;6.90;1.48;;;;;;;13.38;48.61;102851.59;5073390;28;20031;-61
2022/01/28 01:17:40;;;;;;;7.15;1.92;;;;;;;13.38;49.15;102854.28;5073163;28;20077;-62
2022/01/28 01:20:19;;;;;;;10.18;1.42;;;;;;;13.40;49.07;102853.22;5073468;28;20102;-62
2022/01/28 01:22:52;;;;;;;8.00;1.20;;;;;;;13.40;48.60;102855.91;5073320;28;20040;-62
2022/01/28 01:25:24;;;;;;;;;;;;;;;13.40;48.91;102861.28;5073582;28;20110;-62
2022/01/28 01:27:54;;;;;;;5.60;1.30;;;;;;;13.37;47.82;102866.88;5073536;28;19909;-62
2022/01/28 01:30:19;;;;;;;3.85;1.35;;;;;;;13.37;48.74;102869.56;5073138;28;20391;-62
2022/01/28 01:32:45;;;;;;;9.30;1.25;;;;;;;13.36;48.85;102873.22;5072891;28;20020;-62
2022/01/28 01:35:10;;;;;;;13.48;1.02;;;;;;;13.38;48.77;102882.06;5055385;28;20021;-62
2022/01/28 01:37:36;;;;;;;7.50;1.17;;;;;;;13.38;48.71;102891.97;5073324;28;20052;-62
2022/01/28 01:40:01;;;;;;;8.82;1.20;;;;;;;13.39;48.07;102888.31;5073044;28;20036;-62
2022/01/28 01:42:40;;;;;;;10.85;1.63;;;;;;;13.38;47.28;102892.84;5073221;28;20080;-62
2022/01/28 01:45:58;;;;;;;9.00;1.55;;;;;;;13.20;48.72;102864.41;5073419;28;20036;-62
2022/01/28 01:53:24;;;;;;;6.50;1.15;;;;;;;13.28;48.02;102893.50;5073491;28;20031;-62
2022/01/28 01:55:50;;;;;;;9.27;1.42;;;;;;;13.34;47.55;102901.22;5055018;28;20024;-62
2022/01/28 01:58:15;;;;;;;8.95;2.03;;;;;;;13.32;47.71;102909.38;5055248;28;20063;-62
2022/01/28 02:00:40;;;;;;;9.35;2.67;;;;;;;13.33;47.18;102911.09;5054852;28;20024;-62
2022/01/28 02:03:06;;;;;;;4.10;1.38;;;;;;;13.30;48.01;102911.31;5072854;28;20024;-62
2022/01/28 02:05:31;;;;;;;6.60;0.90;;;;;;;13.33;48.12;102921.00;5072774;28;20087;-62
2022/01/28 02:08:04;;;;;;;4.07;0.73;;;;;;;13.33;48.32;102916.50;5072831;28;20455;-62
2022/01/28 02:10:29;;;;;;;8.35;1.25;;;;;;;13.33;48.94;102921.88;5056635;28;20111;-62
2022/01/28 02:12:55;;;;;;;5.60;1.17;;;;;;;13.33;48.49;102932.63;5072952;28;20541;-62
2022/01/28 02:15:20;;;;;;;4.65;1.00;;;;;;;13.33;47.89;102932.63;5075575;28;20028;-62
2022/01/28 02:17:45;;;;;;;5.72;0.80;;;;;;;13.31;48.15;102931.88;5076500;28;20055;-62
2022/01/28 02:20:18;;;;;;;10.13;1.17;;;;;;;13.28;47.44;102926.69;5059142;28;20413;-62
2022/01/28 02:22:43;;;;;;;5.73;0.90;;;;;;;13.31;47.81;102939.97;5058807;28;20064;-62
2022/01/28 02:25:20;;;;;;;7.90;1.27;;;;;;;13.31;47.58;102933.69;5076524;28;20288;-62
2022/01/28 02:27:45;;;;;;;3.20;1.00;;;;;;;13.30;47.75;102931.97;5074810;28;20093;-62
2022/01/28 02:30:13;;;;;;;4.43;1.25;;;;;;;13.26;47.78;102920.50;5067682;28;20024;-62
2022/01/28 02:32:38;;;;;;;5.07;0.70;;;;;;;13.23;47.90;102926.06;5076302;28;20486;-62
2022/01/28 02:35:04;;;;;;;12.60;1.48;;;;;;;13.27;47.43;102926.75;5076276;28;20099;-62
2022/01/28 02:37:30;;;;;;;4.32;1.15;;;;;;;13.26;48.44;102935.81;5076532;28;20020;-62
2022/01/28 02:39:55;;;;;;;10.98;1.02;;;;;;;13.25;47.21;102937.63;5076380;28;20055;-62
2022/01/28 02:42:30;;;;;;;7.07;0.88;;;;;;;13.22;47.02;102937.81;5076382;28;20020;-62
2022/01/28 02:44:57;;;;;;;5.57;1.00;;;;;;;13.22;48.05;102945.91;5058253;28;20020;-62
2022/01/28 02:47:33;;;;;;;7.43;1.13;;;;;;;13.19;47.96;102940.69;5076489;28;20056;-62
2022/01/28 02:49:58;;;;;;;8.43;1.40;;;;;;;13.16;48.35;102940.88;5076035;28;20062;-62
2022/01/28 02:52:35;;;;;;;2.97;0.77;;;;;;;13.12;47.75;102942.03;5075753;28;20595;-62
2022/01/28 02:55:02;;;;;;;12.30;1.77;;;;;;;13.10;47.56;102946.63;5075497;28;20470;-62
2022/01/28 02:57:28;;;;;;;7.35;1.83;;;;;;;13.07;47.76;102952.19;5075166;28;20026;-62
2022/01/28 02:59:54;;;;;;;4.97;1.02;;;;;;;13.05;47.54;102946.03;5075078;28;20385;-62
2022/01/28 03:02:19;;;;;;;6.78;1.27;;;;;;;13.03;48.35;102947.94;5057275;28;20028;-62
2022/01/28 03:05:28;;;;;;;6.85;0.80;;;;;;;12.98;47.96;102950.03;5075325;28;20428;-62
2022/01/28 03:07:47;;;;;;;13.82;1.52;;;;;;;12.93;47.25;102957.50;5074748;28;20107;-62
2022/01/28 03:10:27;;;;;;;7.32;1.13;;;;;;;12.88;47.65;102956.94;5075259;28;20052;-62
2022/01/28 03:15:51;;;;;;;6.97;1.13;;;;;;;12.81;48.22;102955.59;5036656;28;20508;-62
2022/01/28 03:18:25;;;;;;;3.10;1.00;;;;;;;12.79;48.02;102960.16;5075134;28;20074;-62
2022/01/28 03:23:18;;;;;;;4.25;1.27;;;;;;;12.75;47.09;102972.06;5074971;28;20054;-62
2022/01/28 03:25:45;;;;;;;6.40;1.15;;;;;;;12.73;47.39;102982.06;5056360;28;20476;-62
2022/01/28 03:28:12;;;;;;;8.38;0.85;;;;;;;12.68;47.41;102968.00;5074983;28;20494;-62
2022/01/28 03:30:37;;;;;;;5.20;1.10;;;;;;;12.69;47.88;102972.44;5074868;28;20032;-62
2022/01/28 03:33:03;;;;;;;3.92;1.05;;;;;;;12.66;47.46;102983.38;5074342;28;20480;-62
2022/01/28 03:35:30;;;;;;;11.18;1.35;;;;;;;12.64;47.80;102974.53;5074018;28;20028;-62
2022/01/28 03:38:03;;;;;;;4.32;1.23;;;;;;;12.62;48.02;102976.41;5074295;28;20036;-62
2022/01/28 03:40:32;;;;;;;;;;;;;;;12.60;48.24;102986.41;5075072;28;20031;-62
2022/01/28 03:42:58;;;;;;;9.68;1.02;;;;;;;12.58;47.52;102974.88;5074115;28;19909;-62
2022/01/28 03:45:23;;;;;;;8.60;1.88;;;;;;;12.56;47.29;102976.81;5074235;28;20033;-62
2022/01/28 03:47:48;;;;;;;7.57;1.00;;;;;;;12.55;47.64;102980.44;5074108;28;20025;-62
2022/01/28 03:50:14;;;;;;;4.30;1.08;;;;;;;12.55;47.22;102972.38;5074351;28;20028;-62
2022/01/28 03:52:39;;;;;;;10.23;2.45;;;;;;;12.55;48.40;102983.13;5073859;28;20459;-62
2022/01/28 03:55:05;;;;;;;9.40;1.50;;;;;;;12.54;48.13;102984.06;5074089;28;20029;-62
2022/01/28 03:57:30;;;;;;;3.92;1.23;;;;;;;12.54;47.74;102979.56;5074144;28;20024;-62
2022/01/28 03:59:56;;;;;;;7.13;1.45;;;;;;;12.54;47.78;102989.44;5074284;28;20099;-62
2022/01/28 04:02:26;;;;;;;4.57;1.50;;;;;;;12.53;48.69;102979.66;5074001;28;20029;-62
2022/01/28 04:12:47;;;;;;;9.32;1.77;;;;;;;12.54;48.45;103005.56;5073842;28;20043;-62
2022/01/28 04:15:24;;;;;;;6.72;1.48;;;;;;;12.55;48.32;103002.81;5073753;28;20032;-62
2022/01/28 04:17:50;;;;;;;13.23;1.63;;;;;;;12.54;47.92;103011.81;5073773;28;20032;-62
2022/01/28 04:20:15;;;;;;;4.40;1.30;;;;;;;12.49;48.20;103008.53;5073874;28;20112;-62
2022/01/28 04:22:41;;;;;;;5.03;1.85;;;;;;;12.54;48.30;103010.94;5055996;28;20039;-62
2022/01/28 04:25:07;;;;;;;2.45;1.50;;;;;;;12.55;47.62;103010.00;5055513;28;20028;-62
2022/01/28 04:27:32;;;;;;;4.90;1.30;;;;;;;12.51;48.19;103006.63;5073373;28;20063;-62
2022/01/28 04:29:58;;;;;;;5.43;1.42;;;;;;;12.56;47.68;103020.66;5055839;28;20033;-62
2022/01/28 04:32:25;;;;;;;7.50;1.73;;;;;;;12.54;47.71;103017.19;5073112;28;20108;-62
2022/01/28 04:34:53;;;;;;;7.35;1.85;;;;;;;12.60;48.12;103026.72;5072936;28;20429;-62
2022/01/28 04:37:28;;;;;;;4.82;1.63;;;;;;;12.62;48.07;103032.88;5073020;28;20025;-62
2022/01/28 04:40:06;;;;;;;8.15;1.42;;;;;;;12.62;48.34;103031.06;5073468;28;20123;-62
2022/01/28 04:47:47;;;;;;;7.97;1.90;;;;;;;12.64;48.25;103012.19;5055219;28;20028;-62
2022/01/28 04:50:33;;;;;;;6.32;1.63;;;;;;;12.60;48.34;103008.78;5058543;28;20060;-62
2022/01/28 05:27:18;;;;;;;1.95;1.30;;;;;;;12.40;47.82;103040.44;5072561;28;20491;-61
2022/01/28 05:29:44;;;;;;;8.27;2.20;;;;;;;12.37;47.77;103043.31;5072626;28;20032;-62
2022/01/28 05:32:10;;;;;;;10.32;2.10;;;;;;;12.40;48.47;103045.81;5072620;28;20032;-62
2022/01/28 05:34:39;;;;;;;10.80;1.83;;;;;;;12.38;47.71;103053.09;5051187;28;20045;-62
2022/01/28 05:37:06;;;;;;;13.25;2.72;;;;;;;12.34;47.89;103057.78;5052469;28;20044;-62
2022/01/28 05:39:31;;;;;;;6.65;1.55;;;;;;;12.32;48.25;103069.56;5052804;28;20055;-62
2022/01/28 05:41:56;;;;;;;9.70;3.65;;;;;;;12.26;47.55;103071.66;5052417;28;20052;-62
2022/01/28 05:44:23;;;;;;;6.47;2.05;;;;;;;12.25;48.38;103085.19;5051473;28;20029;-62
2022/01/28 05:46:49;;;;;;;3.85;1.90;;;;;;;12.19;47.76;103086.38;5052708;28;20441;-62
2022/01/28 05:49:14;;;;;;;10.35;2.75;;;;;;;12.17;47.70;103085.56;5055014;28;20033;-62
2022/01/28 05:51:41;;;;;;;7.70;2.33;;;;;;;12.12;47.80;103098.41;5056467;28;20036;-62
2022/01/28 05:54:07;;;;;;;10.77;2.85;;;;;;;12.10;47.87;103097.63;5055313;28;20024;-62
2022/01/28 05:56:32;;;;;;;5.25;2.42;;;;;;;12.08;48.05;103101.34;5056350;28;20031;-62
2022/01/28 05:58:58;;;;;;;7.80;2.65;;;;;;;12.04;47.98;103106.00;5056226;28;20025;-62
2022/01/28 06:01:24;;;;;;;6.38;2.60;;;;;;;12.01;48.53;103108.84;5055108;28;20432;-62
2022/01/28 06:03:49;;;;;;;8.55;2.92;;;;;;;12.01;48.18;103106.19;5055125;28;20021;-62
2022/01/28 06:06:20;;;;;;;5.60;2.25;;;;;;;12.00;48.30;103117.88;5056408;28;20038;-62
2022/01/28 06:08:46;;;;;;;5.90;2.35;;;;;;;11.96;48.43;103124.38;5056011;28;20032;-62
2022/01/28 06:11:12;;;;;;;8.38;2.63;;;;;;;11.99;48.16;103126.00;5056410;28;20017;-62
2022/01/28 06:13:37;;;;;;;5.50;3.30;;;;;;;11.99;48.25;103142.13;5054832;28;20059;-61
2022/01/28 06:16:03;;;;;;;10.85;3.05;;;;;;;11.97;47.66;103139.53;5056070;28;20474;-62
2022/01/28 06:18:28;;;;;;;7.80;2.20;;;;;;;11.97;48.33;103139.53;5056179;28;20102;-61
2022/01/28 06:20:53;;;;;;;9.90;2.53;;;;;;;11.95;47.72;103146.78;5056311;28;20025;-62
2022/01/28 06:23:19;;;;;;;8.73;3.05;;;;;;;11.90;48.26;103146.16;5055882;28;20108;-62
2022/01/28 06:25:44;;;;;;;8.57;3.03;;;;;;;11.87;48.11;103154.38;5055703;28;20029;-62
2022/01/28 06:28:09;;;;;;;11.10;3.20;;;;;;;11.80;47.52;103147.63;5054432;28;20031;-62
2022/01/28 06:30:35;;;;;;;9.23;2.70;;;;;;;11.83;48.02;103147.44;5055665;28;20060;-62
2022/01/28 06:33:00;;;;;;;6.18;3.25;;;;;;;11.82;48.26;103147.50;5057283;28;20031;-62
2022/01/28 06:35:25;;;;;;;8.02;3.22;;;;;;;11.81;47.83;103154.69;5057828;28;20017;-62
2022/01/28 06:37:51;;;;;;;7.72;2.65;;;;;;;11.83;47.91;103158.19;5075500;28;20032;-62
2022/01/28 06:40:17;;;;;;;11.82;3.22;;;;;;;11.77;47.71;103155.81;5057769;28;20028;-62
2022/01/28 06:42:43;;;;;;;13.80;3.55;;;;;;;11.80;47.86;103169.09;5075674;28;20103;-62
2022/01/28 06:45:09;;;;;;;8.23;3.78;;;;;;;11.78;48.17;103170.97;5075637;28;20571;-62
2022/01/28 06:47:35;;;;;;;11.32;3.53;;;;;;;11.77;48.50;103173.75;5069147;28;20029;-62
2022/01/28 06:50:02;;;;;;;15.27;3.65;;;;;;;11.76;48.40;103175.56;5056319;28;20111;-62
2022/01/28 06:52:28;;;;;;;13.65;4.95;;;;;;;11.76;48.23;103177.38;5055313;28;20032;-62
2022/01/28 06:54:53;;;;;;;13.00;4.00;;;;;;;11.76;47.67;103175.56;5020736;28;20394;-62
2022/01/28 06:57:18;;;;;;;13.73;4.15;;;;;;;11.73;48.15;103175.72;5055370;28;20028;-62
2022/01/28 06:59:44;;;;;;;13.57;3.70;;;;;;;11.75;48.21;103186.38;5036608;28;20056;-62
2022/01/28 07:02:10;;;;;;;11.30;4.18;;;;;;;11.73;48.32;103189.13;5055175;28;20024;-61
2022/01/28 07:04:35;;;;;;;8.70;4.13;;;;;;;11.73;48.00;103194.50;5055376;28;20017;-61
2022/01/28 07:07:00;;;;;;;7.70;4.53;;;;;;;11.72;48.29;103189.22;5054966;28;20029;-62
2022/01/28 07:09:27;;;;;;;12.52;4.63;;;;;;;11.71;48.05;103196.41;5055265;28;20096;-62
2022/01/28 07:11:52;;;;;;;16.75;6.13;;;;;;;11.67;48.40;103197.47;5037034;28;20025;-62
2022/01/28 07:14:17;;;;;;;10.40;5.00;;;;;;;11.67;48.00;103216.25;5054768;28;20028;-62
2022/01/28 07:16:43;;;;;;;13.45;4.50;;;;;;;11.67;48.27;103217.13;5054485;28;20025;-61
2022/01/28 07:19:09;;;;;;;14.93;4.47;;;;;;;11.67;48.07;103217.13;5036900;28;20052;-62
2022/01/28 07:21:35;;;;;;;10.40;4.47;;;;;;;11.61;48.11;103205.84;5054618;28;20024;-62
2022/01/28 07:24:00;;;;;;;12.45;5.60;;;;;;;11.63;48.02;103230.78;5054674;28;20021;-62
2022/01/28 07:26:25;;;;;;;11.55;5.07;;;;;;;11.60;47.98;103230.94;5054397;28;20151;-62
2022/01/28 07:28:52;;;;;;;8.57;4.40;;;;;;;11.59;47.97;103242.63;5054630;28;20095;-62
2022/01/28 07:31:18;;;;;;;13.93;4.20;;;;;;;11.56;48.20;103232.03;5054543;28;20407;-62
2022/01/28 07:33:44;;;;;;;10.95;4.30;;;;;;;11.57;48.32;103242.72;5054075;28;20041;-62
2022/01/28 07:36:09;;;;;;;6.72;4.18;;;;;;;11.54;47.68;103237.50;5054866;28;20540;-62
2022/01/28 07:38:35;;;;;;;16.40;5.82;;;;;;;11.58;48.56;103239.09;5054557;28;20075;-62
2022/01/28 07:41:01;;;;;;;11.50;4.72;;;;;;;11.58;48.30;103239.09;5054391;28;20029;-62
2022/01/28 07:43:27;;;;;;;8.57;4.90;;;;;;;11.61;48.28;103251.50;5036733;28;20025;-62
2022/01/28 07:45:52;;;;;;;13.30;5.32;;;;;;;11.62;48.53;103245.16;5054496;28;20437;-62
2022/01/28 07:48:18;;;;;;;15.35;5.05;;;;;;;11.61;48.31;103243.44;5054120;28;20075;-62
2022/01/28 07:50:43;;;;;;;19.13;6.15;;;;;;;11.63;48.29;103253.16;5054111;28;20082;-62
2022/01/28 07:53:11;;;;;;;12.88;5.55;;;;;;;11.66;48.18;103246.75;5054361;28;20075;-61
2022/01/28 07:55:36;;;;;;;10.63;4.63;;;;;;;11.70;47.83;103258.25;5054031;28;20013;-62
2022/01/28 07:58:02;;;;;;;15.70;5.32;;;;;;;11.71;47.99;103255.47;5053937;28;20035;-62
2022/01/28 08:00:27;;;;;;;14.00;5.75;;;;;;;11.73;48.15;103256.25;5053683;28;20021;-62
2022/01/28 08:02:53;;;;;;;15.75;5.93;;;;;;;11.70;47.97;103248.34;5053665;28;20083;-62
2022/01/28 08:05:19;;;;;;;12.98;6.00;;;;;;;11.75;47.63;103258.88;5053478;28;20055;-62
2022/01/28 08:07:44;;;;;;;8.23;5.55;;;;;;;11.73;47.53;103253.56;5053837;28;20025;-62
2022/01/28 08:10:10;;;;;;;11.00;5.85;;;;;;;11.80;47.67;103260.38;5053732;28;20025;-62
2022/01/28 08:12:46;;;;;;;12.88;5.68;;;;;;;11.85;47.80;103262.84;5052479;28;20083;-61
2022/01/28 08:15:12;;;;;;;9.02;5.68;;;;;;;11.83;47.55;103257.56;5053483;28;20104;-62
2022/01/28 08:17:37;;;;;;;16.35;5.75;;;;;;;11.89;48.18;103262.59;5053469;28;20039;-62
2022/01/28 08:20:03;;;;;;;9.48;4.85;;;;;;;11.87;48.11;103256.44;5053552;28;20041;-62
2022/01/28 08:22:28;;;;;;;17.13;5.65;;;;;;;11.92;48.04;103259.75;5053259;28;20098;-62
2022/01/28 08:24:53;;;;;;;17.25;5.10;;;;;;;11.98;47.52;103264.81;5053238;28;20502;-62
2022/01/28 08:27:19;;;;;;;10.63;5.45;;;;;;;12.01;48.16;103270.03;5053100;28;20037;-62
2022/01/28 08:29:44;;;;;;;18.42;6.18;;;;;;;12.03;47.78;103273.50;5053225;28;20066;-62
2022/01/28 08:32:09;;;;;;;13.95;5.60;;;;;;;12.07;47.26;103275.09;5053148;28;20039;-62
2022/01/28 08:34:35;;;;;;;20.35;6.53;;;;;;;12.10;47.61;103274.06;5052975;28;20080;-62
2022/01/28 08:37:03;;;;;;;17.33;6.45;;;;;;;12.13;48.42;103280.16;5052862;28;20458;-62
2022/01/28 08:39:30;;;;;;;14.60;6.45;;;;;;;12.17;47.57;103283.56;5053237;28;20103;-62
2022/01/28 08:41:55;;;;;;;15.93;6.80;;;;;;;12.18;48.15;103283.47;5052995;28;20024;-62
2022/01/28 08:44:20;;;;;;;14.73;6.00;;;;;;;12.26;48.47;103296.50;5052821;28;20033;-62
2022/01/28 08:46:46;;;;;;;15.35;6.53;;;;;;;12.32;48.13;103300.69;5035090;28;20112;-62
2022/01/28 08:49:11;;;;;;;18.75;6.82;;;;;;;12.39;47.84;103294.94;5035101;28;20056;-62
2022/01/28 08:51:36;;;;;;;14.10;6.10;;;;;;;12.49;48.21;103303.38;5053045;28;20037;-61
2022/01/28 08:54:02;;;;;;;12.02;7.05;;;;;;;12.59;47.98;103307.31;5052892;28;20115;-62
2022/01/28 08:56:27;;;;;;;14.07;6.57;;;;;;;12.68;47.60;103312.19;5034990;28;20033;-62
2022/01/28 08:58:52;;;;;;;14.13;6.40;;;;;;;12.84;47.34;103313.13;5052753;28;20490;-63
2022/01/28 09:01:18;;;;;;;10.00;6.13;;;;;;;12.93;47.97;103300.97;5052804;28;20866;-62
2022/01/28 09:03:44;;;;;;;13.75;6.47;;;;;;;13.14;47.63;103306.09;5052650;28;20470;-62
2022/01/28 09:06:09;;;;;;;23.63;6.75;;;;;;;13.27;47.25;103309.84;5052750;28;20108;-62
2022/01/28 09:08:35;;;;;;;14.60;6.38;;;;;;;13.41;46.87;103307.25;5034855;28;20029;-61
2022/01/28 09:11:29;;;;;;;27.48;7.28;;;;;;;13.53;47.88;103310.19;5052584;28;20032;-62
2022/01/28 09:13:46;;;;;;;16.27;7.00;;;;;;;13.72;46.92;103305.47;5052421;28;20499;-62
2022/01/28 09:16:11;;;;;;;11.13;6.13;;;;;;;13.91;47.21;103312.41;5052771;28;20059;-62
2022/01/28 09:18:36;;;;;;;10.10;6.32;;;;;;;14.06;46.73;103313.34;5052491;28;20037;-62
2022/01/28 09:21:02;;;;;;;15.80;6.82;;;;;;;14.22;46.87;103306.06;5034822;28;20064;-62
2022/01/28 09:23:27;;;;;;;15.82;6.72;;;;;;;14.42;46.15;103303.06;5052262;28;20029;-63
2022/01/28 09:25:53;;;;;;;18.10;7.03;;;;;;;14.64;46.23;103307.13;5052356;28;20033;-62
2022/01/28 09:28:18;;;;;;;12.35;7.00;;;;;;;14.83;47.17;103311.31;5052751;28;20093;-62
2022/01/28 09:30:43;;;;;;;9.68;6.25;;;;;;;15.03;45.71;103293.84;5052387;28;20526;-63
2022/01/28 09:33:09;;;;;;;13.43;6.68;;;;;;;15.25;46.14;103304.13;5052138;28;20029;-63
2022/01/28 09:35:34;;;;;;;13.90;6.55;;;;;;;15.50;45.19;103310.59;5052295;28;20056;-63
2022/01/28 09:38:00;;;;;;;13.98;6.40;;;;;;;15.71;45.85;103302.91;5052633;28;20024;-63
2022/01/28 09:40:25;;;;;;;15.23;6.70;;;;;;;16.02;46.35;103296.31;5035136;28;20069;-62
2022/01/28 09:42:53;;;;;;;17.10;6.60;;;;;;;16.33;45.39;103301.38;5034829;28;20500;-63
2022/01/28 09:45:21;;;;;;;15.50;6.38;;;;;;;16.63;44.85;103307.38;5034999;28;20025;-63
2022/01/28 09:47:47;;;;;;;12.95;6.15;;;;;;;16.95;44.48;103310.50;5052530;28;20542;-63
2022/01/28 09:50:13;;;;;;;9.93;6.43;;;;;;;17.29;44.42;103292.69;5052680;28;20128;-63
2022/01/28 09:52:38;;;;;;;11.75;5.93;;;;;;;17.66;43.86;103296.28;5034750;28;20033;-63
2022/01/28 09:55:04;;;;;;;17.90;6.53;;;;;;;17.95;44.62;103303.94;5052594;28;20031;-63
2022/01/28 09:57:31;;;;;;;16.80;6.25;;;;;;;18.27;43.70;103308.75;5052658;28;20103;-63
2022/01/28 09:59:57;;;;;;;17.67;7.38;;;;;;;18.58;43.88;103305.41;5052843;28;20032;-63
2022/01/28 10:02:53;;;;;;;10.57;5.70;;;;;;;18.95;42.90;103312.38;5053077;28;20032;-63
2022/01/28 10:05:21;;;;;;;18.58;7.00;;;;;;;19.24;42.90;103309.13;5052697;28;20036;-63
2022/01/28 10:08:19;;;;;;;14.45;7.35;;;;;;;19.48;42.71;103312.63;5053015;28;20057;-63
2022/01/28 10:10:48;;;;;;;14.45;6.18;;;;;;;19.74;42.70;103327.63;4999415;28;20032;-63
2022/01/28 10:13:22;;;;;;;17.67;7.53;;;;;;;20.01;42.28;103319.88;5053315;28;20078;-63
2022/01/28 10:16:15;;;;;;;15.30;7.32;;;;;;;20.27;41.60;103321.25;5052820;28;20032;-63
2022/01/28 10:18:54;;;;;;;15.57;8.20;;;;;;;20.42;41.66;103320.94;5052696;28;20025;-63
2022/01/28 10:21:38;;;;;;;16.27;7.50;;;;;;;20.60;41.40;103322.09;5052654;28;20025;-63
2022/01/28 10:24:09;;;;;;;14.32;7.97;;;;;;;20.29;42.10;103319.31;5052855;28;20029;-63
2022/01/28 10:27:07;;;;;;;14.77;7.97;;;;;;;19.68;42.54;103312.69;5052751;28;20448;-63
2022/01/28 10:29:34;;;;;;;13.77;7.90;;;;;;;19.31;43.22;103319.41;5048882;28;20483;-63
2022/01/28 10:32:09;;;;;;;18.08;8.18;;;;;;;19.09;43.21;103314.84;5052912;28;20466;-63
2022/01/28 10:34:37;;;;;;;23.58;8.23;;;;;;;18.81;43.32;103330.75;5052530;28;20122;-63
2022/01/28 10:37:23;;;;;;;15.05;8.02;;;;;;;18.45;43.96;103324.47;5056194;28;20032;-62
2022/01/28 10:39:48;;;;;;;19.08;7.47;;;;;;;18.22;43.21;103332.66;5056282;28;20031;-63
2022/01/28 10:42:20;;;;;;;21.98;8.38;;;;;;;18.04;43.71;103335.78;5056316;28;20104;-63
2022/01/28 10:44:54;;;;;;;15.98;8.20;;;;;;;17.85;43.12;103330.03;5038273;28;20029;-63
2022/01/28 10:47:38;;;;;;;17.27;7.88;;;;;;;17.63;44.68;103327.19;5056061;28;20048;-63
2022/01/28 10:50:24;;;;;;;18.40;8.45;;;;;;;17.48;43.62;103336.41;5038477;28;20474;-63
2022/01/28 10:53:07;;;;;;;14.48;8.88;;;;;;;17.32;44.31;103324.97;5055851;28;20023;-63
2022/01/28 10:55:36;;;;;;;18.45;8.32;;;;;;;17.12;43.94;103329.13;5037603;28;20025;-62
2022/01/28 10:58:04;;;;;;;14.57;7.90;;;;;;;17.03;44.44;103328.94;5055687;28;20037;-63
2022/01/28 11:00:35;;;;;;;20.63;9.35;;;;;;;17.29;43.63;103317.94;5055540;28;20025;-63
2022/01/28 11:03:03;;;;;;;21.20;8.43;;;;;;;17.05;44.57;103329.69;5055195;28;20024;-63
2022/01/28 11:05:30;;;;;;;16.70;8.20;;;;;;;16.87;43.76;103337.25;5037337;28;20032;-63
2022/01/28 11:08:00;;;;;;;21.67;8.10;;;;;;;16.73;44.15;103332.81;5055491;28;20021;-63
2022/01/28 11:10:26;;;;;;;24.77;9.18;;;;;;;16.65;45.03;103347.88;5055443;28;20109;-63
2022/01/28 11:12:52;;;;;;;18.83;9.45;;;;;;;16.60;44.16;103336.50;5055640;28;20479;-63
2022/01/28 11:15:18;;;;;;;19.52;8.52;;;;;;;16.75;44.50;103335.44;5055142;28;20028;-62
2022/01/28 11:17:43;;;;;;;19.13;9.18;;;;;;;16.66;44.10;103336.94;5055269;28;20292;-63
2022/01/28 11:20:09;;;;;;;14.40;8.13;;;;;;;16.58;45.24;103327.63;5055643;28;20115;-63
2022/01/28 11:23:08;;;;;;;23.30;10.40;;;;;;;16.50;44.60;103330.81;5055528;28;20492;-63
2022/01/28 11:25:36;;;;;;;25.30;8.85;;;;;;;16.46;43.95;103321.19;5037169;28;20024;-63
2022/01/28 11:28:12;;;;;;;19.27;7.93;;;;;;;16.35;45.19;103326.47;5055117;28;20024;-63
2022/01/28 11:30:48;;;;;;;26.02;10.13;;;;;;;16.33;45.74;103321.16;5037195;28;20045;-63
2022/01/28 11:33:15;;;;;;;15.98;8.80;;;;;;;16.21;44.61;103318.44;5054889;28;20033;-63
2022/01/28 11:35:42;;;;;;;27.52;9.13;;;;;;;16.13;45.30;103329.78;5054579;28;20421;-63
2022/01/28 11:38:26;;;;;;;25.10;9.23;;;;;;;16.17;45.57;103316.91;5036986;28;20513;-63
2022/01/28 11:41:18;;;;;;;22.55;9.55;;;;;;;16.11;44.40;103306.50;5054402;28;20025;-63
2022/01/28 11:43:48;;;;;;;19.02;8.45;;;;;;;16.03;45.05;103306.16;5054210;28;20028;-62
2022/01/28 11:46:17;;;;;;;22.02;8.98;;;;;;;16.03;45.68;103303.44;5054089;28;20070;-63
2022/01/28 11:48:51;;;;;;;23.98;8.85;;;;;;;16.20;45.73;103297.75;5054160;28;20112;-63
2022/01/28 11:51:32;;;;;;;15.70;8.57;;;;;;;16.28;44.76;103296.25;5054643;28;20036;-63
2022/01/28 11:53:59;;;;;;;20.23;8.40;;;;;;;16.36;45.49;103300.28;5054274;28;20027;-63
2022/01/28 11:56:25;;;;;;;19.92;8.82;;;;;;;16.38;44.70;103299.22;5054101;28;20057;-63
2022/01/28 11:58:57;;;;;;;20.65;8.95;;;;;;;16.44;44.51;103290.69;5054105;28;20793;-62
2022/01/28 12:01:45;;;;;;;18.97;9.07;;;;;;;16.66;45.00;103293.66;5054096;28;20028;-63
2022/01/28 12:04:26;;;;;;;19.00;8.82;;;;;;;16.75;44.65;103276.72;5035926;28;20043;-63
2022/01/28 12:06:56;;;;;;;23.27;8.82;;;;;;;16.71;44.70;103275.22;5036101;28;20537;-63
2022/01/28 12:09:25;;;;;;;27.88;8.75;;;;;;;16.64;44.26;103273.91;5036081;28;20032;-63
2022/01/28 12:11:51;;;;;;;27.75;8.48;;;;;;;16.62;45.31;103267.75;5054160;28;20056;-63
2022/01/28 12:14:18;;;;;;;21.08;8.68;;;;;;;16.58;45.94;103266.22;5036032;28;20453;-62
2022/01/28 12:16:46;;;;;;;15.55;7.25;;;;;;;16.57;44.74;103266.34;5036061;28;20025;-63
2022/01/28 12:19:19;;;;;;;26.25;9.60;;;;;;;16.54;44.72;103271.97;5019797;28;20028;-62
2022/01/28 12:22:08;;;;;;;;;;;;;;;16.48;45.93;103273.25;5054109;28;20115;-62
2022/01/28 12:24:34;;;;;;;32.03;12.93;;;;;;;16.46;46.06;103277.03;5053646;28;19963;-63
2022/01/28 12:27:13;;;;;;;52.05;18.25;;;;;;;16.44;45.99;103266.31;5053606;28;20024;-63
2022/01/28 12:29:50;;;;;;;24.40;12.32;;;;;;;16.41;45.32;103282.78;5053552;28;20181;-63
2022/01/28 12:32:21;;;;;;;24.00;10.13;;;;;;;16.36;46.06;103274.09;5053855;28;20098;-62
2022/01/28 12:34:47;;;;;;;34.70;10.50;;;;;;;16.41;44.46;103273.78;5053138;28;20037;-63
2022/01/28 12:37:13;;;;;;;21.98;9.68;;;;;;;16.74;44.64;103274.13;5053685;28;20212;-63
2022/01/28 12:39:44;;;;;;;19.67;10.30;;;;;;;16.92;44.31;103269.25;5053522;28;20059;-63
2022/01/28 12:42:22;;;;;;;18.38;9.13;;;;;;;17.52;43.82;103264.75;5053621;28;20095;-63
2022/01/28 12:44:55;;;;;;;23.35;9.80;;;;;;;17.88;43.00;103264.72;5053663;28;20028;-63
2022/01/28 12:47:21;;;;;;;30.70;11.40;;;;;;;18.17;43.64;103258.91;5053303;28;20495;-63